»·PEaware :: N172SP KSNA-KCRQ

N172SP :: KSNA-KCRQ

FLIGHT INFORMATION

Flight Status: Arrived
Operator: Privately registered:
United States
More flights under this callsign
Pilot: Carson T. (20437)
Aircraft: CESSNA 172 SKYHAWK
(C172)
More flights by this aircraft type
Origin: KSNA John Wayne-Orange Co
United States
Destination: KCRQ McClellan-Palomar
United States
More flights between these airports :: More routes between these airports
Route: V23 OCN
File this flight plan on PilotEdge
Remarks: I-2 Rating, vectors for the ILS RWY 24 approach @ KCRQ.
Altitude:
(Current/Filed)
5,000ft
Speed:
(Current/Filed)
120kts
Departed: 18-Oct-18 12:38 PM
Arrived: 18-Oct-18 01:19 PM
Distance/Time
Traveled:
0nm/0:41
Distance/Time
To Go:
Arrived

Flight Plot

Page will automatically refresh every two minutes.


Map Options




Map Legend


Flown Route
Filed Route
Departure Airport
Arrival Airport
Navaid (VOR, NDB)
Fix

Horizontal Profiles

Position Reports

Time Latitude Longitude Heading Altitude Ground
Speed
18-Oct-18 12:23 33.676080 -117.870909 219 60ft 0kts
18-Oct-18 12:24 33.676080 -117.870909 219 60ft 0kts
18-Oct-18 12:25 33.676080 -117.870909 219 60ft 0kts
18-Oct-18 12:26 33.676080 -117.870909 219 60ft 0kts
18-Oct-18 12:27 33.676080 -117.870909 219 60ft 0kts
18-Oct-18 12:28 33.676080 -117.870909 219 60ft 0kts
18-Oct-18 12:29 33.676080 -117.870909 219 60ft 0kts
18-Oct-18 12:30 33.676080 -117.870909 219 60ft 0kts
18-Oct-18 12:31 33.676080 -117.870909 219 60ft 0kts
18-Oct-18 12:32 33.676080 -117.870909 219 60ft 0kts
18-Oct-18 12:33 33.676080 -117.870909 219 60ft 0kts
18-Oct-18 12:34 33.675727 -117.870533 123 60ft 6kts
18-Oct-18 12:35 33.677613 -117.869101 27 60ft 14kts
18-Oct-18 12:36 33.681259 -117.866784 75 60ft 10kts
18-Oct-18 12:37 33.681189 -117.866375 115 60ft 0kts
18-Oct-18 12:38 33.681189 -117.866375 115 60ft 0kts
18-Oct-18 12:39 33.679999 -117.866098 207 60ft 32kts
18-Oct-18 12:40 33.658332 -117.879791 197 694ft 100kts
18-Oct-18 12:41 33.624998 -117.885252 186 1669ft 104kts
18-Oct-18 12:42 33.600727 -117.888350 188 2314ft 106kts
18-Oct-18 12:43 33.571313 -117.893634 190 3043ft 108kts
18-Oct-18 12:44 33.548898 -117.876486 114 3669ft 109kts
18-Oct-18 12:45 33.535432 -117.843695 110 4324ft 109kts
18-Oct-18 12:46 33.523167 -117.809835 109 4965ft 111kts
18-Oct-18 12:47 33.510043 -117.773102 111 5095ft 124kts
18-Oct-18 12:48 33.492898 -117.737470 120 5080ft 123kts
18-Oct-18 12:49 33.472549 -117.704637 133 5084ft 123kts
18-Oct-18 12:50 33.447918 -117.676573 136 5107ft 122kts
18-Oct-18 12:51 33.422350 -117.649582 135 5129ft 122kts
18-Oct-18 12:52 33.400167 -117.618775 132 5109ft 123kts
18-Oct-18 12:53 33.375203 -117.590998 135 5118ft 122kts
18-Oct-18 12:54 33.351635 -117.561745 129 5122ft 121kts
18-Oct-18 12:55 33.328902 -117.532094 131 5128ft 120kts
18-Oct-18 12:56 33.304472 -117.504478 135 5099ft 121kts
18-Oct-18 12:57 33.281041 -117.476299 128 5096ft 119kts
18-Oct-18 12:58 33.259456 -117.446618 129 5084ft 118kts
18-Oct-18 12:59 33.237750 -117.417729 129 5087ft 116kts
18-Oct-18 13:00 33.218118 -117.387506 127 5076ft 115kts
18-Oct-18 13:01 33.197934 -117.355279 125 5003ft 126kts
18-Oct-18 13:02 33.192773 -117.315664 78 5134ft 126kts
18-Oct-18 13:03 33.197628 -117.274241 80 5164ft 127kts
18-Oct-18 13:04 33.201314 -117.232313 83 5081ft 126kts
18-Oct-18 13:05 33.205204 -117.190608 82 5072ft 126kts
18-Oct-18 13:06 33.208302 -117.149244 84 5072ft 126kts
18-Oct-18 13:07 33.209854 -117.107485 81 5069ft 126kts
18-Oct-18 13:08 33.213048 -117.065592 85 5072ft 127kts
18-Oct-18 13:09 33.217535 -117.024416 81 5092ft 120kts
18-Oct-18 13:10 33.224388 -116.985979 90 4992ft 114kts
18-Oct-18 13:11 33.201747 -116.976798 191 5082ft 111kts
18-Oct-18 13:12 33.176311 -116.998711 220 5092ft 116kts
18-Oct-18 13:13 33.166256 -117.034406 265 4559ft 121kts
18-Oct-18 13:14 33.161107 -117.071133 263 3985ft 110kts
18-Oct-18 13:15 33.156216 -117.106845 255 3355ft 110kts
18-Oct-18 13:16 33.149741 -117.143386 266 2609ft 113kts
18-Oct-18 13:17 33.144155 -117.179646 257 1974ft 107kts
18-Oct-18 13:18 33.139002 -117.214352 263 1358ft 108kts
18-Oct-18 13:19 33.134791 -117.240977 256 904ft 62kts
18-Oct-18 13:20 33.131226 -117.261637 259 574ft 61kts
18-Oct-18 13:21 33.128666 -117.277505 257 309ft 27kts
18-Oct-18 13:22 33.127525 -117.279964 221 309ft 0kts
18-Oct-18 13:23 33.127525 -117.279964 221 309ft 0kts
18-Oct-18 13:24 33.127525 -117.279964 221 309ft 0kts
18-Oct-18 13:25 33.126934 -117.280403 258 310ft 0kts
18-Oct-18 13:26 33.126934 -117.280403 258 310ft 0kts
18-Oct-18 13:27 33.126934 -117.280403 258 310ft 0kts
18-Oct-18 13:28 33.126934 -117.280403 258 310ft 0kts
18-Oct-18 13:29 33.126934 -117.280403 258 310ft 0kts
18-Oct-18 13:32 33.676205 -117.871104 212 60ft 0kts
18-Oct-18 13:33 33.676205 -117.871104 212 60ft 0kts
18-Oct-18 13:34 33.676205 -117.871104 212 60ft 0kts
18-Oct-18 13:35 33.676205 -117.871104 212 60ft 0kts

Navigation Log

Ident Type
1. KSNA Airport
2. OCN Navaid
3. KCRQ Airport